sensor_id;sensor_type;location;lat;lon;timestamp;P1;durP1;ratioP1;P2;durP2;ratioP2
64915;SDS011;51427;-27.442;153.014;2024-03-23T00:54:35;4.13;;;1.27;;
64915;SDS011;51427;-27.442;153.014;2024-03-23T00:57:03;3.78;;;1.00;;
64915;SDS011;51427;-27.442;153.014;2024-03-23T00:59:30;3.60;;;1.45;;
64915;SDS011;51427;-27.442;153.014;2024-03-23T01:01:57;5.03;;;1.48;;
64915;SDS011;51427;-27.442;153.014;2024-03-23T01:04:24;4.50;;;1.08;;
64915;SDS011;51427;-27.442;153.014;2024-03-23T01:06:52;2.88;;;1.05;;
64915;SDS011;51427;-27.442;153.014;2024-03-23T01:09:19;2.00;;;1.10;;
64915;SDS011;51427;-27.442;153.014;2024-03-23T01:11:46;5.35;;;1.20;;
64915;SDS011;51427;-27.442;153.014;2024-03-23T01:14:14;4.65;;;1.02;;
64915;SDS011;51427;-27.442;153.014;2024-03-23T01:16:41;3.35;;;0.82;;
64915;SDS011;51427;-27.442;153.014;2024-03-23T01:19:08;5.47;;;1.38;;
64915;SDS011;51427;-27.442;153.014;2024-03-23T01:21:35;4.22;;;1.10;;
64915;SDS011;51427;-27.442;153.014;2024-03-23T01:24:03;1.75;;;0.93;;
64915;SDS011;51427;-27.442;153.014;2024-03-23T01:26:30;3.50;;;1.02;;
64915;SDS011;51427;-27.442;153.014;2024-03-23T01:28:57;5.40;;;1.50;;
64915;SDS011;51427;-27.442;153.014;2024-03-23T01:31:24;6.22;;;1.00;;
64915;SDS011;51427;-27.442;153.014;2024-03-23T01:33:52;3.75;;;1.15;;
64915;SDS011;51427;-27.442;153.014;2024-03-23T01:36:19;4.18;;;0.90;;
64915;SDS011;51427;-27.442;153.014;2024-03-23T01:38:46;3.20;;;0.98;;
64915;SDS011;51427;-27.442;153.014;2024-03-23T01:41:13;6.53;;;0.98;;
64915;SDS011;51427;-27.442;153.014;2024-03-23T01:43:41;2.67;;;0.90;;
64915;SDS011;51427;-27.442;153.014;2024-03-23T01:46:08;3.50;;;1.02;;
64915;SDS011;51427;-27.442;153.014;2024-03-23T01:48:35;3.58;;;1.00;;
64915;SDS011;51427;-27.442;153.014;2024-03-23T01:51:03;4.80;;;0.95;;
64915;SDS011;51427;-27.442;153.014;2024-03-23T01:53:30;4.28;;;1.25;;
64915;SDS011;51427;-27.442;153.014;2024-03-23T01:55:58;4.13;;;1.25;;
64915;SDS011;51427;-27.442;153.014;2024-03-23T01:58:25;5.38;;;0.90;;
64915;SDS011;51427;-27.442;153.014;2024-03-23T02:00:52;3.90;;;1.02;;
64915;SDS011;51427;-27.442;153.014;2024-03-23T02:03:23;3.60;;;0.85;;
64915;SDS011;51427;-27.442;153.014;2024-03-23T02:05:54;3.08;;;1.00;;
64915;SDS011;51427;-27.442;153.014;2024-03-23T02:08:22;4.47;;;0.77;;
64915;SDS011;51427;-27.442;153.014;2024-03-23T02:10:50;5.68;;;1.02;;
64915;SDS011;51427;-27.442;153.014;2024-03-23T02:13:18;3.67;;;0.88;;
64915;SDS011;51427;-27.442;153.014;2024-03-23T02:15:45;3.50;;;0.80;;
64915;SDS011;51427;-27.442;153.014;2024-03-23T02:18:13;3.83;;;0.98;;
64915;SDS011;51427;-27.442;153.014;2024-03-23T02:20:40;6.65;;;1.10;;
64915;SDS011;51427;-27.442;153.014;2024-03-23T02:23:14;5.05;;;1.00;;
64915;SDS011;51427;-27.442;153.014;2024-03-23T02:25:42;5.68;;;1.05;;
64915;SDS011;51427;-27.442;153.014;2024-03-23T02:28:09;4.00;;;1.45;;
64915;SDS011;51427;-27.442;153.014;2024-03-23T02:30:37;2.85;;;0.80;;
64915;SDS011;51427;-27.442;153.014;2024-03-23T02:33:04;3.20;;;1.20;;
64915;SDS011;51427;-27.442;153.014;2024-03-23T02:35:31;5.68;;;1.00;;
64915;SDS011;51427;-27.442;153.014;2024-03-23T02:37:59;6.55;;;1.55;;
64915;SDS011;51427;-27.442;153.014;2024-03-23T02:40:27;3.83;;;1.13;;
64915;SDS011;51427;-27.442;153.014;2024-03-23T02:42:55;4.30;;;1.05;;
64915;SDS011;51427;-27.442;153.014;2024-03-23T02:45:22;7.13;;;1.40;;
64915;SDS011;51427;-27.442;153.014;2024-03-23T02:47:50;4.05;;;1.17;;
64915;SDS011;51427;-27.442;153.014;2024-03-23T02:50:20;4.18;;;1.30;;
64915;SDS011;51427;-27.442;153.014;2024-03-23T02:52:48;5.90;;;1.60;;
64915;SDS011;51427;-27.442;153.014;2024-03-23T02:55:15;5.22;;;1.25;;
64915;SDS011;51427;-27.442;153.014;2024-03-23T02:57:42;4.63;;;1.15;;
64915;SDS011;51427;-27.442;153.014;2024-03-23T03:00:10;6.38;;;1.08;;
64915;SDS011;51427;-27.442;153.014;2024-03-23T03:02:38;6.68;;;1.40;;
64915;SDS011;51427;-27.442;153.014;2024-03-23T03:05:05;6.80;;;1.92;;
64915;SDS011;51427;-27.442;153.014;2024-03-23T03:07:34;2.75;;;1.02;;
64915;SDS011;51427;-27.442;153.014;2024-03-23T03:10:04;4.13;;;1.10;;
64915;SDS011;51427;-27.442;153.014;2024-03-23T03:12:34;6.38;;;1.35;;
64915;SDS011;51427;-27.442;153.014;2024-03-23T03:15:01;5.63;;;1.60;;
64915;SDS011;51427;-27.442;153.014;2024-03-23T03:17:28;4.85;;;1.13;;
64915;SDS011;51427;-27.442;153.014;2024-03-23T03:19:56;3.67;;;1.17;;
64915;SDS011;51427;-27.442;153.014;2024-03-23T03:22:23;5.85;;;1.40;;
64915;SDS011;51427;-27.442;153.014;2024-03-23T03:24:50;5.07;;;1.17;;
64915;SDS011;51427;-27.442;153.014;2024-03-23T03:27:17;5.85;;;1.17;;
64915;SDS011;51427;-27.442;153.014;2024-03-23T03:29:45;5.10;;;1.20;;
64915;SDS011;51427;-27.442;153.014;2024-03-23T03:32:12;4.75;;;1.38;;
64915;SDS011;51427;-27.442;153.014;2024-03-23T03:34:39;5.50;;;1.42;;
64915;SDS011;51427;-27.442;153.014;2024-03-23T03:37:06;5.10;;;1.13;;
64915;SDS011;51427;-27.442;153.014;2024-03-23T03:39:34;4.60;;;1.33;;
64915;SDS011;51427;-27.442;153.014;2024-03-23T03:42:01;5.20;;;1.05;;
64915;SDS011;51427;-27.442;153.014;2024-03-23T03:44:32;5.03;;;1.35;;
64915;SDS011;51427;-27.442;153.014;2024-03-23T03:46:59;4.65;;;1.15;;
64915;SDS011;51427;-27.442;153.014;2024-03-23T03:49:26;5.30;;;1.30;;
64915;SDS011;51427;-27.442;153.014;2024-03-23T03:51:54;3.58;;;0.70;;
64915;SDS011;51427;-27.442;153.014;2024-03-23T03:54:21;5.95;;;1.00;;
64915;SDS011;51427;-27.442;153.014;2024-03-23T03:56:48;6.22;;;0.80;;
64915;SDS011;51427;-27.442;153.014;2024-03-23T03:59:17;3.50;;;0.80;;
64915;SDS011;51427;-27.442;153.014;2024-03-23T04:01:46;3.78;;;0.80;;
64915;SDS011;51427;-27.442;153.014;2024-03-23T04:04:13;4.20;;;0.95;;
64915;SDS011;51427;-27.442;153.014;2024-03-23T04:06:43;2.42;;;0.50;;
64915;SDS011;51427;-27.442;153.014;2024-03-23T04:09:10;2.92;;;0.90;;
64915;SDS011;51427;-27.442;153.014;2024-03-23T04:11:37;8.50;;;1.17;;
64915;SDS011;51427;-27.442;153.014;2024-03-23T04:14:05;11.98;;;1.20;;
64915;SDS011;51427;-27.442;153.014;2024-03-23T04:16:35;7.28;;;1.27;;
64915;SDS011;51427;-27.442;153.014;2024-03-23T04:19:02;5.40;;;1.13;;
64915;SDS011;51427;-27.442;153.014;2024-03-23T04:21:29;4.05;;;1.05;;
64915;SDS011;51427;-27.442;153.014;2024-03-23T04:23:57;5.00;;;1.02;;
64915;SDS011;51427;-27.442;153.014;2024-03-23T04:26:24;6.97;;;1.33;;
64915;SDS011;51427;-27.442;153.014;2024-03-23T04:28:51;3.78;;;1.02;;
64915;SDS011;51427;-27.442;153.014;2024-03-23T04:31:18;5.88;;;1.08;;
64915;SDS011;51427;-27.442;153.014;2024-03-23T04:33:45;5.57;;;1.20;;
64915;SDS011;51427;-27.442;153.014;2024-03-23T04:36:13;4.05;;;0.98;;
64915;SDS011;51427;-27.442;153.014;2024-03-23T04:38:40;6.93;;;1.27;;
64915;SDS011;51427;-27.442;153.014;2024-03-23T04:41:07;6.15;;;0.90;;
64915;SDS011;51427;-27.442;153.014;2024-03-23T04:43:34;3.38;;;1.20;;
64915;SDS011;51427;-27.442;153.014;2024-03-23T04:46:02;8.70;;;1.38;;
64915;SDS011;51427;-27.442;153.014;2024-03-23T04:48:29;4.60;;;1.55;;
64915;SDS011;51427;-27.442;153.014;2024-03-23T04:50:57;4.38;;;1.10;;
64915;SDS011;51427;-27.442;153.014;2024-03-23T04:53:25;3.60;;;0.90;;
64915;SDS011;51427;-27.442;153.014;2024-03-23T04:55:54;6.22;;;1.20;;
64915;SDS011;51427;-27.442;153.014;2024-03-23T04:58:22;3.22;;;1.20;;
64915;SDS011;51427;-27.442;153.014;2024-03-23T05:00:53;3.33;;;1.00;;
64915;SDS011;51427;-27.442;153.014;2024-03-23T05:03:21;4.70;;;1.33;;
64915;SDS011;51427;-27.442;153.014;2024-03-23T05:05:49;5.13;;;1.05;;
64915;SDS011;51427;-27.442;153.014;2024-03-23T05:08:17;3.50;;;1.30;;
64915;SDS011;51427;-27.442;153.014;2024-03-23T05:10:44;4.63;;;1.13;;
64915;SDS011;51427;-27.442;153.014;2024-03-23T05:13:12;4.18;;;1.05;;
64915;SDS011;51427;-27.442;153.014;2024-03-23T05:15:39;4.78;;;1.23;;
64915;SDS011;51427;-27.442;153.014;2024-03-23T05:18:06;6.82;;;1.40;;
64915;SDS011;51427;-27.442;153.014;2024-03-23T05:20:34;6.80;;;1.30;;
64915;SDS011;51427;-27.442;153.014;2024-03-23T05:23:01;3.35;;;1.10;;
64915;SDS011;51427;-27.442;153.014;2024-03-23T05:25:28;4.95;;;1.17;;
64915;SDS011;51427;-27.442;153.014;2024-03-23T05:27:55;3.85;;;1.30;;
64915;SDS011;51427;-27.442;153.014;2024-03-23T05:30:23;5.65;;;1.13;;
64915;SDS011;51427;-27.442;153.014;2024-03-23T05:32:50;4.30;;;1.38;;
64915;SDS011;51427;-27.442;153.014;2024-03-23T05:35:17;7.00;;;1.50;;
64915;SDS011;51427;-27.442;153.014;2024-03-23T05:37:45;4.53;;;1.38;;
64915;SDS011;51427;-27.442;153.014;2024-03-23T05:40:12;4.38;;;1.30;;
64915;SDS011;51427;-27.442;153.014;2024-03-23T05:42:41;4.95;;;1.27;;
64915;SDS011;51427;-27.442;153.014;2024-03-23T05:45:08;7.03;;;1.42;;
64915;SDS011;51427;-27.442;153.014;2024-03-23T05:47:36;5.20;;;1.30;;
64915;SDS011;51427;-27.442;153.014;2024-03-23T05:50:04;6.07;;;1.52;;
64915;SDS011;51427;-27.442;153.014;2024-03-23T05:52:32;5.82;;;1.48;;
64915;SDS011;51427;-27.442;153.014;2024-03-23T05:54:59;8.52;;;1.48;;
64915;SDS011;51427;-27.442;153.014;2024-03-23T05:57:26;6.28;;;1.05;;
64915;SDS011;51427;-27.442;153.014;2024-03-23T05:59:53;6.80;;;1.67;;
64915;SDS011;51427;-27.442;153.014;2024-03-23T06:02:22;6.18;;;1.08;;
64915;SDS011;51427;-27.442;153.014;2024-03-23T06:04:50;3.42;;;1.00;;
64915;SDS011;51427;-27.442;153.014;2024-03-23T06:07:17;7.80;;;1.27;;
64915;SDS011;51427;-27.442;153.014;2024-03-23T06:09:44;4.03;;;0.98;;
64915;SDS011;51427;-27.442;153.014;2024-03-23T06:12:11;2.75;;;0.95;;
64915;SDS011;51427;-27.442;153.014;2024-03-23T06:14:39;4.03;;;0.90;;
64915;SDS011;51427;-27.442;153.014;2024-03-23T06:17:06;4.95;;;0.98;;
64915;SDS011;51427;-27.442;153.014;2024-03-23T06:19:33;7.10;;;1.63;;
64915;SDS011;51427;-27.442;153.014;2024-03-23T06:22:01;3.17;;;0.60;;
64915;SDS011;51427;-27.442;153.014;2024-03-23T06:24:28;2.35;;;0.65;;
64915;SDS011;51427;-27.442;153.014;2024-03-23T06:26:55;4.78;;;1.15;;
64915;SDS011;51427;-27.442;153.014;2024-03-23T06:29:22;4.68;;;1.10;;
64915;SDS011;51427;-27.442;153.014;2024-03-23T06:31:56;1.80;;;0.80;;
64915;SDS011;51427;-27.442;153.014;2024-03-23T06:34:23;5.38;;;1.00;;
64915;SDS011;51427;-27.442;153.014;2024-03-23T06:36:50;3.92;;;1.08;;
64915;SDS011;51427;-27.442;153.014;2024-03-23T06:39:18;2.38;;;0.85;;
64915;SDS011;51427;-27.442;153.014;2024-03-23T06:41:51;3.67;;;0.98;;
64915;SDS011;51427;-27.442;153.014;2024-03-23T06:44:19;4.75;;;1.05;;
64915;SDS011;51427;-27.442;153.014;2024-03-23T06:46:47;4.63;;;1.30;;
64915;SDS011;51427;-27.442;153.014;2024-03-23T06:49:14;5.45;;;1.38;;
64915;SDS011;51427;-27.442;153.014;2024-03-23T06:51:42;4.70;;;1.48;;
64915;SDS011;51427;-27.442;153.014;2024-03-23T06:54:11;4.88;;;1.73;;
64915;SDS011;51427;-27.442;153.014;2024-03-23T06:56:38;4.35;;;1.45;;
64915;SDS011;51427;-27.442;153.014;2024-03-23T06:59:06;3.08;;;1.25;;
64915;SDS011;51427;-27.442;153.014;2024-03-23T07:01:33;3.55;;;1.10;;
64915;SDS011;51427;-27.442;153.014;2024-03-23T07:04:00;5.93;;;1.45;;
64915;SDS011;51427;-27.442;153.014;2024-03-23T07:06:29;2.47;;;0.93;;
64915;SDS011;51427;-27.442;153.014;2024-03-23T07:08:57;5.70;;;1.20;;
64915;SDS011;51427;-27.442;153.014;2024-03-23T07:11:24;2.70;;;1.13;;
64915;SDS011;51427;-27.442;153.014;2024-03-23T07:13:52;4.88;;;1.33;;
64915;SDS011;51427;-27.442;153.014;2024-03-23T07:16:23;4.35;;;0.98;;
64915;SDS011;51427;-27.442;153.014;2024-03-23T07:18:50;3.55;;;1.20;;
64915;SDS011;51427;-27.442;153.014;2024-03-23T07:21:17;2.95;;;0.85;;
64915;SDS011;51427;-27.442;153.014;2024-03-23T07:23:44;3.65;;;1.08;;
64915;SDS011;51427;-27.442;153.014;2024-03-23T07:26:12;0.90;;;0.57;;
64915;SDS011;51427;-27.442;153.014;2024-03-23T07:28:39;2.03;;;0.80;;
64915;SDS011;51427;-27.442;153.014;2024-03-23T07:31:12;2.78;;;0.82;;
64915;SDS011;51427;-27.442;153.014;2024-03-23T07:33:44;2.60;;;0.82;;
64915;SDS011;51427;-27.442;153.014;2024-03-23T07:36:12;2.28;;;0.80;;
64915;SDS011;51427;-27.442;153.014;2024-03-23T07:38:40;2.95;;;0.88;;
64915;SDS011;51427;-27.442;153.014;2024-03-23T07:41:09;2.60;;;0.85;;
64915;SDS011;51427;-27.442;153.014;2024-03-23T07:43:37;4.35;;;1.00;;
64915;SDS011;51427;-27.442;153.014;2024-03-23T07:46:06;2.17;;;0.70;;
64915;SDS011;51427;-27.442;153.014;2024-03-23T07:48:33;1.75;;;0.70;;
64915;SDS011;51427;-27.442;153.014;2024-03-23T07:51:01;3.38;;;1.15;;
64915;SDS011;51427;-27.442;153.014;2024-03-23T07:53:30;2.22;;;0.80;;
64915;SDS011;51427;-27.442;153.014;2024-03-23T07:55:59;2.60;;;1.17;;
64915;SDS011;51427;-27.442;153.014;2024-03-23T07:58:34;1.73;;;0.95;;
64915;SDS011;51427;-27.442;153.014;2024-03-23T08:01:05;5.22;;;1.05;;
64915;SDS011;51427;-27.442;153.014;2024-03-23T08:03:34;2.92;;;1.05;;
64915;SDS011;51427;-27.442;153.014;2024-03-23T08:06:17;3.70;;;1.08;;
64915;SDS011;51427;-27.442;153.014;2024-03-23T08:08:47;4.38;;;1.10;;
64915;SDS011;51427;-27.442;153.014;2024-03-23T08:11:16;3.33;;;0.70;;
64915;SDS011;51427;-27.442;153.014;2024-03-23T08:13:44;2.42;;;0.98;;
64915;SDS011;51427;-27.442;153.014;2024-03-23T08:16:12;4.63;;;0.73;;
64915;SDS011;51427;-27.442;153.014;2024-03-23T08:18:39;3.40;;;1.00;;
64915;SDS011;51427;-27.442;153.014;2024-03-23T08:21:07;3.00;;;0.70;;
64915;SDS011;51427;-27.442;153.014;2024-03-23T08:23:35;3.35;;;0.95;;
64915;SDS011;51427;-27.442;153.014;2024-03-23T08:26:04;3.83;;;0.98;;
64915;SDS011;51427;-27.442;153.014;2024-03-23T08:28:33;3.53;;;1.00;;
64915;SDS011;51427;-27.442;153.014;2024-03-23T08:31:02;5.90;;;1.38;;
64915;SDS011;51427;-27.442;153.014;2024-03-23T08:33:40;3.63;;;1.08;;
64915;SDS011;51427;-27.442;153.014;2024-03-23T08:36:10;2.72;;;1.25;;
64915;SDS011;51427;-27.442;153.014;2024-03-23T08:38:38;2.50;;;0.98;;
64915;SDS011;51427;-27.442;153.014;2024-03-23T08:41:06;5.50;;;1.48;;
64915;SDS011;51427;-27.442;153.014;2024-03-23T08:43:40;2.78;;;0.90;;
64915;SDS011;51427;-27.442;153.014;2024-03-23T08:48:40;1.65;;;0.85;;
64915;SDS011;51427;-27.442;153.014;2024-03-23T08:51:10;3.10;;;1.10;;
64915;SDS011;51427;-27.442;153.014;2024-03-23T08:53:39;4.22;;;1.13;;
64915;SDS011;51427;-27.442;153.014;2024-03-23T08:56:07;4.70;;;1.10;;
64915;SDS011;51427;-27.442;153.014;2024-03-23T08:58:36;3.65;;;1.00;;
64915;SDS011;51427;-27.442;153.014;2024-03-23T09:01:09;2.78;;;1.00;;
64915;SDS011;51427;-27.442;153.014;2024-03-23T09:03:40;3.78;;;1.10;;
64915;SDS011;51427;-27.442;153.014;2024-03-23T09:08:36;5.22;;;1.50;;
64915;SDS011;51427;-27.442;153.014;2024-03-23T09:11:05;3.00;;;1.20;;
64915;SDS011;51427;-27.442;153.014;2024-03-23T09:13:34;5.25;;;1.80;;
64915;SDS011;51427;-27.442;153.014;2024-03-23T09:16:02;4.75;;;1.35;;
64915;SDS011;51427;-27.442;153.014;2024-03-23T09:18:34;3.08;;;1.33;;
64915;SDS011;51427;-27.442;153.014;2024-03-23T09:21:03;3.78;;;1.60;;
64915;SDS011;51427;-27.442;153.014;2024-03-23T09:23:30;5.72;;;1.50;;
64915;SDS011;51427;-27.442;153.014;2024-03-23T09:25:58;8.48;;;1.75;;
64915;SDS011;51427;-27.442;153.014;2024-03-23T09:28:29;5.35;;;1.38;;
64915;SDS011;51427;-27.442;153.014;2024-03-23T09:31:03;5.72;;;1.85;;
64915;SDS011;51427;-27.442;153.014;2024-03-23T09:33:31;2.75;;;1.38;;
64915;SDS011;51427;-27.442;153.014;2024-03-23T09:36:02;4.78;;;1.65;;
64915;SDS011;51427;-27.442;153.014;2024-03-23T09:38:30;2.78;;;1.60;;
64915;SDS011;51427;-27.442;153.014;2024-03-23T09:40:57;2.35;;;1.20;;
64915;SDS011;51427;-27.442;153.014;2024-03-23T09:43:25;3.22;;;1.58;;
64915;SDS011;51427;-27.442;153.014;2024-03-23T09:45:53;6.18;;;1.52;;
64915;SDS011;51427;-27.442;153.014;2024-03-23T09:48:20;3.90;;;1.40;;
64915;SDS011;51427;-27.442;153.014;2024-03-23T09:50:48;4.70;;;1.30;;
64915;SDS011;51427;-27.442;153.014;2024-03-23T09:53:15;5.32;;;1.25;;
64915;SDS011;51427;-27.442;153.014;2024-03-23T09:55:43;5.90;;;1.50;;
64915;SDS011;51427;-27.442;153.014;2024-03-23T09:58:14;5.30;;;1.60;;
64915;SDS011;51427;-27.442;153.014;2024-03-23T10:00:43;3.97;;;1.35;;
64915;SDS011;51427;-27.442;153.014;2024-03-23T10:03:11;4.90;;;1.65;;
64915;SDS011;51427;-27.442;153.014;2024-03-23T10:05:39;3.15;;;1.33;;
64915;SDS011;51427;-27.442;153.014;2024-03-23T10:13:09;2.10;;;1.35;;
64915;SDS011;51427;-27.442;153.014;2024-03-23T10:15:40;4.72;;;2.40;;
64915;SDS011;51427;-27.442;153.014;2024-03-23T10:18:28;5.53;;;1.92;;
64915;SDS011;51427;-27.442;153.014;2024-03-23T10:23:38;4.70;;;1.92;;
64915;SDS011;51427;-27.442;153.014;2024-03-23T10:26:16;4.72;;;1.40;;
64915;SDS011;51427;-27.442;153.014;2024-03-23T10:31:49;3.13;;;1.73;;
64915;SDS011;51427;-27.442;153.014;2024-03-23T10:34:16;4.70;;;1.58;;
64915;SDS011;51427;-27.442;153.014;2024-03-23T10:36:51;4.75;;;1.73;;
64915;SDS011;51427;-27.442;153.014;2024-03-23T10:39:20;3.00;;;1.50;;
64915;SDS011;51427;-27.442;153.014;2024-03-23T10:41:49;3.35;;;1.50;;
64915;SDS011;51427;-27.442;153.014;2024-03-23T10:44:19;4.68;;;1.70;;
64915;SDS011;51427;-27.442;153.014;2024-03-23T10:46:47;7.55;;;2.83;;
64915;SDS011;51427;-27.442;153.014;2024-03-23T10:49:14;5.97;;;2.03;;
64915;SDS011;51427;-27.442;153.014;2024-03-23T10:51:41;5.72;;;2.20;;
64915;SDS011;51427;-27.442;153.014;2024-03-23T10:54:08;4.28;;;1.40;;
64915;SDS011;51427;-27.442;153.014;2024-03-23T10:56:38;4.72;;;1.92;;
64915;SDS011;51427;-27.442;153.014;2024-03-23T10:59:07;4.35;;;1.80;;
64915;SDS011;51427;-27.442;153.014;2024-03-23T11:01:35;4.03;;;1.45;;
64915;SDS011;51427;-27.442;153.014;2024-03-23T11:04:34;5.35;;;1.63;;
64915;SDS011;51427;-27.442;153.014;2024-03-23T11:07:29;4.10;;;1.65;;
64915;SDS011;51427;-27.442;153.014;2024-03-23T11:09:57;4.28;;;1.55;;
64915;SDS011;51427;-27.442;153.014;2024-03-23T11:12:26;4.47;;;1.90;;
64915;SDS011;51427;-27.442;153.014;2024-03-23T11:15:05;3.47;;;1.67;;
64915;SDS011;51427;-27.442;153.014;2024-03-23T11:17:39;5.45;;;1.98;;
64915;SDS011;51427;-27.442;153.014;2024-03-23T11:20:06;4.50;;;1.98;;
64915;SDS011;51427;-27.442;153.014;2024-03-23T11:25:18;4.93;;;1.60;;
64915;SDS011;51427;-27.442;153.014;2024-03-23T11:27:52;5.75;;;1.80;;
64915;SDS011;51427;-27.442;153.014;2024-03-23T11:32:53;6.13;;;1.90;;
64915;SDS011;51427;-27.442;153.014;2024-03-23T11:35:27;2.70;;;1.65;;
64915;SDS011;51427;-27.442;153.014;2024-03-23T11:38:05;4.93;;;2.00;;
64915;SDS011;51427;-27.442;153.014;2024-03-23T11:40:41;2.47;;;2.28;;
64915;SDS011;51427;-27.442;153.014;2024-03-23T11:43:10;2.50;;;1.70;;
64915;SDS011;51427;-27.442;153.014;2024-03-23T11:45:51;5.43;;;2.20;;
64915;SDS011;51427;-27.442;153.014;2024-03-23T11:48:21;7.55;;;2.63;;
64915;SDS011;51427;-27.442;153.014;2024-03-23T11:50:50;4.43;;;2.40;;
64915;SDS011;51427;-27.442;153.014;2024-03-23T11:53:21;6.38;;;2.45;;
64915;SDS011;51427;-27.442;153.014;2024-03-23T11:55:52;6.75;;;2.10;;
64915;SDS011;51427;-27.442;153.014;2024-03-23T11:58:24;3.45;;;2.15;;
64915;SDS011;51427;-27.442;153.014;2024-03-23T12:00:56;5.28;;;2.45;;
64915;SDS011;51427;-27.442;153.014;2024-03-23T12:03:25;5.03;;;2.40;;
64915;SDS011;51427;-27.442;153.014;2024-03-23T12:05:57;5.20;;;2.55;;
64915;SDS011;51427;-27.442;153.014;2024-03-23T12:08:33;4.32;;;2.47;;
64915;SDS011;51427;-27.442;153.014;2024-03-23T12:11:11;3.58;;;2.42;;
64915;SDS011;51427;-27.442;153.014;2024-03-23T12:13:41;5.50;;;2.45;;
64915;SDS011;51427;-27.442;153.014;2024-03-23T12:16:10;4.60;;;2.38;;
64915;SDS011;51427;-27.442;153.014;2024-03-23T12:18:39;4.63;;;2.28;;
64915;SDS011;51427;-27.442;153.014;2024-03-23T12:21:10;6.55;;;2.67;;
64915;SDS011;51427;-27.442;153.014;2024-03-23T12:23:41;3.25;;;2.30;;
64915;SDS011;51427;-27.442;153.014;2024-03-23T12:26:15;6.57;;;2.20;;
64915;SDS011;51427;-27.442;153.014;2024-03-23T12:28:43;3.30;;;2.25;;
64915;SDS011;51427;-27.442;153.014;2024-03-23T12:31:10;3.40;;;2.03;;
64915;SDS011;51427;-27.442;153.014;2024-03-23T12:33:38;5.05;;;2.10;;
64915;SDS011;51427;-27.442;153.014;2024-03-23T12:36:05;3.88;;;2.50;;
64915;SDS011;51427;-27.442;153.014;2024-03-23T12:38:32;3.55;;;2.00;;
64915;SDS011;51427;-27.442;153.014;2024-03-23T12:40:59;6.28;;;2.28;;
64915;SDS011;51427;-27.442;153.014;2024-03-23T12:43:27;5.22;;;2.65;;
64915;SDS011;51427;-27.442;153.014;2024-03-23T12:45:54;3.60;;;2.60;;
64915;SDS011;51427;-27.442;153.014;2024-03-23T12:48:22;4.43;;;2.40;;
64915;SDS011;51427;-27.442;153.014;2024-03-23T12:50:54;3.60;;;2.22;;
64915;SDS011;51427;-27.442;153.014;2024-03-23T12:53:21;3.00;;;2.08;;
64915;SDS011;51427;-27.442;153.014;2024-03-23T12:55:48;6.15;;;2.42;;
64915;SDS011;51427;-27.442;153.014;2024-03-23T12:58:15;5.82;;;2.63;;
64915;SDS011;51427;-27.442;153.014;2024-03-23T13:00:43;4.43;;;1.90;;
64915;SDS011;51427;-27.442;153.014;2024-03-23T13:03:13;4.75;;;2.40;;
64915;SDS011;51427;-27.442;153.014;2024-03-23T13:05:41;4.88;;;1.88;;
64915;SDS011;51427;-27.442;153.014;2024-03-23T13:08:08;3.10;;;1.65;;
64915;SDS011;51427;-27.442;153.014;2024-03-23T13:10:35;3.88;;;2.25;;
64915;SDS011;51427;-27.442;153.014;2024-03-23T13:13:03;2.20;;;1.45;;
64915;SDS011;51427;-27.442;153.014;2024-03-23T13:15:30;4.10;;;1.77;;
64915;SDS011;51427;-27.442;153.014;2024-03-23T13:17:57;3.08;;;1.45;;
64915;SDS011;51427;-27.442;153.014;2024-03-23T13:20:24;2.92;;;1.42;;
64915;SDS011;51427;-27.442;153.014;2024-03-23T13:22:52;3.20;;;1.50;;
64915;SDS011;51427;-27.442;153.014;2024-03-23T13:25:19;3.85;;;1.60;;
64915;SDS011;51427;-27.442;153.014;2024-03-23T13:27:47;4.28;;;1.35;;
64915;SDS011;51427;-27.442;153.014;2024-03-23T13:30:14;3.53;;;1.40;;
64915;SDS011;51427;-27.442;153.014;2024-03-23T13:32:41;4.93;;;1.17;;
64915;SDS011;51427;-27.442;153.014;2024-03-23T13:35:08;4.28;;;1.10;;
64915;SDS011;51427;-27.442;153.014;2024-03-23T13:37:36;3.20;;;1.05;;
64915;SDS011;51427;-27.442;153.014;2024-03-23T13:40:03;3.88;;;1.30;;
64915;SDS011;51427;-27.442;153.014;2024-03-23T13:42:32;3.95;;;1.30;;
64915;SDS011;51427;-27.442;153.014;2024-03-23T13:44:59;5.25;;;1.60;;
64915;SDS011;51427;-27.442;153.014;2024-03-23T13:47:26;2.65;;;1.23;;
64915;SDS011;51427;-27.442;153.014;2024-03-23T13:49:53;5.80;;;1.70;;
64915;SDS011;51427;-27.442;153.014;2024-03-23T13:52:21;4.47;;;1.42;;
64915;SDS011;51427;-27.442;153.014;2024-03-23T13:54:51;3.97;;;1.50;;
64915;SDS011;51427;-27.442;153.014;2024-03-23T13:57:18;3.22;;;1.52;;
64915;SDS011;51427;-27.442;153.014;2024-03-23T13:59:47;3.92;;;1.27;;
64915;SDS011;51427;-27.442;153.014;2024-03-23T14:02:14;2.95;;;1.15;;
64915;SDS011;51427;-27.442;153.014;2024-03-23T14:04:42;4.93;;;1.30;;
64915;SDS011;51427;-27.442;153.014;2024-03-23T14:07:09;3.25;;;1.15;;
64915;SDS011;51427;-27.442;153.014;2024-03-23T14:09:36;3.95;;;1.35;;
64915;SDS011;51427;-27.442;153.014;2024-03-23T14:12:04;3.88;;;1.33;;
64915;SDS011;51427;-27.442;153.014;2024-03-23T14:14:34;3.75;;;1.58;;
64915;SDS011;51427;-27.442;153.014;2024-03-23T14:17:02;3.05;;;1.25;;
64915;SDS011;51427;-27.442;153.014;2024-03-23T14:19:29;5.20;;;1.23;;
64915;SDS011;51427;-27.442;153.014;2024-03-23T14:21:56;3.03;;;1.13;;
64915;SDS011;51427;-27.442;153.014;2024-03-23T14:24:23;7.90;;;1.50;;
64915;SDS011;51427;-27.442;153.014;2024-03-23T14:26:50;3.28;;;1.55;;
64915;SDS011;51427;-27.442;153.014;2024-03-23T14:29:18;2.72;;;1.50;;
64915;SDS011;51427;-27.442;153.014;2024-03-23T14:31:45;2.88;;;1.52;;
64915;SDS011;51427;-27.442;153.014;2024-03-23T14:34:12;3.38;;;1.80;;
64915;SDS011;51427;-27.442;153.014;2024-03-23T14:36:39;5.05;;;1.80;;
64915;SDS011;51427;-27.442;153.014;2024-03-23T14:39:07;3.08;;;1.60;;
64915;SDS011;51427;-27.442;153.014;2024-03-23T14:41:34;3.78;;;1.65;;
64915;SDS011;51427;-27.442;153.014;2024-03-23T14:44:01;3.05;;;1.98;;
64915;SDS011;51427;-27.442;153.014;2024-03-23T14:46:29;3.00;;;1.85;;
64915;SDS011;51427;-27.442;153.014;2024-03-23T14:48:56;4.65;;;2.00;;
64915;SDS011;51427;-27.442;153.014;2024-03-23T14:51:24;6.80;;;2.08;;
64915;SDS011;51427;-27.442;153.014;2024-03-23T14:53:53;4.47;;;2.28;;
64915;SDS011;51427;-27.442;153.014;2024-03-23T14:56:20;5.75;;;2.08;;
64915;SDS011;51427;-27.442;153.014;2024-03-23T14:58:51;5.85;;;1.95;;
64915;SDS011;51427;-27.442;153.014;2024-03-23T15:01:21;4.65;;;1.85;;
64915;SDS011;51427;-27.442;153.014;2024-03-23T15:03:48;6.63;;;2.00;;
64915;SDS011;51427;-27.442;153.014;2024-03-23T15:06:19;5.97;;;1.92;;
64915;SDS011;51427;-27.442;153.014;2024-03-23T15:08:46;3.80;;;1.98;;
64915;SDS011;51427;-27.442;153.014;2024-03-23T15:11:13;4.03;;;2.05;;
64915;SDS011;51427;-27.442;153.014;2024-03-23T15:13:43;3.47;;;1.73;;
64915;SDS011;51427;-27.442;153.014;2024-03-23T15:16:16;3.03;;;1.73;;
64915;SDS011;51427;-27.442;153.014;2024-03-23T15:18:45;5.72;;;1.90;;
64915;SDS011;51427;-27.442;153.014;2024-03-23T15:21:13;4.53;;;1.60;;
64915;SDS011;51427;-27.442;153.014;2024-03-23T15:23:45;5.20;;;1.60;;
64915;SDS011;51427;-27.442;153.014;2024-03-23T15:26:13;2.75;;;1.80;;
64915;SDS011;51427;-27.442;153.014;2024-03-23T15:28:41;2.72;;;1.65;;
64915;SDS011;51427;-27.442;153.014;2024-03-23T15:31:20;4.65;;;1.83;;